createdAt,value
2024-04-18T00:00:39.287Z,0.82
2024-04-18T00:01:39.218Z,0.84
2024-04-18T00:02:39.254Z,0.84
2024-04-18T00:03:39.402Z,0.81
2024-04-18T00:04:39.363Z,0.82
2024-04-18T00:05:39.350Z,0.81
2024-04-18T00:06:39.394Z,0.82
2024-04-18T00:07:39.397Z,0.81
2024-04-18T00:08:39.421Z,0.82
2024-04-18T00:09:39.415Z,0.82
2024-04-18T00:10:39.506Z,0.81
2024-04-18T00:11:39.462Z,0.82
2024-04-18T00:12:39.582Z,0.81
2024-04-18T00:13:39.512Z,0.81
2024-04-18T00:14:39.558Z,0.82
2024-04-18T00:15:39.588Z,0.81
2024-04-18T00:16:39.609Z,0.82
2024-04-18T00:17:39.701Z,0.81
2024-04-18T00:18:40.642Z,0.81
2024-04-18T00:19:39.655Z,0.80
2024-04-18T00:20:39.688Z,0.79
2024-04-18T00:21:39.719Z,0.81
2024-04-18T00:22:40.488Z,0.80
2024-04-18T00:23:39.761Z,0.81
2024-04-18T00:24:39.816Z,0.80
2024-04-18T00:25:40.019Z,0.81
2024-04-18T00:26:39.875Z,0.80
2024-04-18T00:27:39.949Z,0.81
2024-04-18T00:28:39.919Z,0.79
2024-04-18T00:29:39.940Z,0.79
2024-04-18T00:30:40.070Z,0.79
2024-04-18T00:31:40.021Z,0.80
2024-04-18T00:32:40.011Z,0.79
2024-04-18T00:33:40.079Z,0.78
2024-04-18T00:34:40.103Z,0.81
2024-04-18T00:35:40.102Z,0.80
2024-04-18T00:36:40.210Z,0.78
2024-04-18T00:37:40.193Z,0.77
2024-04-18T00:38:40.198Z,0.79
2024-04-18T00:39:40.229Z,0.79
2024-04-18T00:40:40.518Z,0.75
2024-04-18T00:41:40.269Z,0.76
2024-04-18T00:42:40.388Z,0.77
2024-04-18T00:43:40.337Z,0.77
2024-04-18T00:44:40.352Z,0.78
2024-04-18T00:45:40.418Z,0.78
2024-04-18T00:46:40.441Z,0.77
2024-04-18T00:47:40.524Z,0.77
2024-04-18T00:48:40.563Z,0.77
2024-04-18T00:49:40.522Z,0.78
2024-04-18T00:50:40.573Z,0.76
2024-04-18T00:51:40.671Z,0.77
2024-04-18T00:52:40.647Z,0.76
2024-04-18T00:53:40.663Z,0.75
2024-04-18T00:54:40.852Z,0.77
2024-04-18T00:55:41.038Z,0.76
2024-04-18T00:56:40.763Z,0.75
2024-04-18T00:57:40.949Z,0.77
2024-04-18T00:58:40.828Z,0.75
2024-04-18T00:59:40.869Z,0.75
2024-04-18T01:00:41.065Z,0.76
2024-04-18T01:01:40.971Z,0.76
2024-04-18T01:02:40.995Z,0.75
2024-04-18T01:03:41.173Z,0.74
2024-04-18T01:04:41.133Z,0.75
2024-04-18T01:05:41.530Z,0.75
2024-04-18T01:06:41.141Z,0.75
2024-04-18T01:07:41.197Z,0.77
2024-04-18T01:08:41.205Z,0.74
2024-04-18T01:09:41.255Z,0.76
2024-04-18T01:10:41.271Z,0.75
2024-04-18T01:11:41.295Z,0.75
2024-04-18T01:12:41.393Z,0.75
2024-04-18T01:13:41.334Z,0.76
2024-04-18T01:14:41.384Z,0.74
2024-04-18T01:15:41.558Z,0.75
2024-04-18T01:16:41.460Z,0.74
2024-04-18T01:17:41.582Z,0.75
2024-04-18T01:18:41.548Z,0.73
2024-04-18T01:19:41.548Z,0.72
2024-04-18T01:20:42.041Z,0.73
2024-04-18T01:21:41.720Z,0.74
2024-04-18T01:22:41.652Z,0.72
2024-04-18T01:23:41.703Z,0.73
2024-04-18T01:24:41.747Z,0.73
2024-04-18T01:25:42.078Z,0.72
2024-04-18T01:26:41.802Z,0.73
2024-04-18T01:27:41.895Z,0.75
2024-04-18T01:28:41.847Z,0.71
2024-04-18T01:29:41.889Z,0.74
2024-04-18T01:30:42.028Z,0.71
2024-04-18T01:31:41.977Z,0.73
2024-04-18T01:32:42.186Z,0.73
2024-04-18T01:33:42.139Z,0.72
2024-04-18T01:34:42.072Z,0.73
2024-04-18T01:35:42.174Z,0.72
2024-04-18T01:36:42.252Z,0.72
2024-04-18T01:37:42.190Z,0.70
2024-04-18T01:38:42.262Z,0.71
2024-04-18T01:39:42.414Z,0.71
2024-04-18T01:40:42.309Z,0.72
2024-04-18T01:41:42.337Z,0.72
2024-04-18T01:42:42.436Z,0.70
2024-04-18T01:43:42.388Z,0.72
2024-04-18T01:44:42.462Z,0.71
2024-04-18T01:45:42.550Z,0.71
2024-04-18T01:46:42.509Z,0.71
2024-04-18T01:47:42.637Z,0.69
2024-04-18T01:48:42.762Z,0.73
2024-04-18T01:49:42.607Z,0.72
2024-04-18T01:50:42.665Z,0.70
2024-04-18T01:51:42.804Z,0.69
2024-04-18T01:52:42.762Z,0.72
2024-04-18T01:53:42.796Z,0.71
2024-04-18T01:54:42.900Z,0.70
2024-04-18T01:55:42.861Z,0.71
2024-04-18T01:56:42.864Z,0.70
2024-04-18T01:57:42.978Z,0.69
2024-04-18T01:58:42.957Z,0.71
2024-04-18T01:59:42.972Z,0.70
2024-04-18T02:00:43.079Z,0.70
2024-04-18T02:01:43.091Z,0.69
2024-04-18T02:02:43.082Z,0.68
2024-04-18T02:03:43.247Z,0.70
2024-04-18T02:04:43.224Z,0.69
2024-04-18T02:05:43.215Z,0.71
2024-04-18T02:06:43.278Z,0.71
2024-04-18T02:07:43.302Z,0.70
2024-04-18T02:08:43.327Z,0.70
2024-04-18T02:09:43.502Z,0.68
2024-04-18T02:10:43.450Z,0.69
2024-04-18T02:11:43.421Z,0.70
2024-04-18T02:12:43.544Z,0.71
2024-04-18T02:13:43.508Z,0.68
2024-04-18T02:14:43.543Z,0.69
2024-04-18T02:15:43.674Z,0.69
2024-04-18T02:16:43.607Z,0.70
2024-04-18T02:17:43.720Z,0.67
2024-04-18T02:18:43.731Z,0.68
2024-04-18T02:19:43.721Z,0.67
2024-04-18T02:20:43.790Z,0.68
2024-04-18T02:21:43.822Z,0.68
2024-04-18T02:22:43.931Z,0.67
2024-04-18T02:23:43.898Z,0.67
2024-04-18T02:24:44.030Z,0.67
2024-04-18T02:25:44.070Z,0.70
2024-04-18T02:26:44.035Z,0.69
2024-04-18T02:27:44.278Z,0.68
2024-04-18T02:28:44.174Z,0.68
2024-04-18T02:29:44.158Z,0.68
2024-04-18T02:30:44.191Z,0.67
2024-04-18T02:31:44.240Z,0.67
2024-04-18T02:32:44.276Z,0.67
2024-04-18T02:33:44.376Z,0.67
2024-04-18T02:34:44.328Z,0.68
2024-04-18T02:35:44.514Z,0.67
2024-04-18T02:36:44.612Z,0.66
2024-04-18T02:37:44.554Z,0.69
2024-04-18T02:38:44.568Z,0.69
2024-04-18T02:39:44.688Z,0.67
2024-04-18T02:40:45.091Z,0.66
2024-04-18T02:41:44.669Z,0.67
2024-04-18T02:42:44.788Z,0.66
2024-04-18T02:43:44.740Z,0.68
2024-04-18T02:44:44.814Z,0.64
2024-04-18T02:45:44.964Z,0.68
2024-04-18T02:46:44.897Z,0.67
2024-04-18T02:47:44.978Z,0.66
2024-04-18T02:48:45.004Z,0.68
2024-04-18T02:49:45.021Z,0.66
2024-04-18T02:50:45.061Z,0.64
2024-04-18T02:51:45.096Z,0.66
2024-04-18T02:52:45.106Z,0.64
2024-04-18T02:53:45.187Z,0.66
2024-04-18T02:54:45.616Z,0.66
2024-04-18T02:55:45.256Z,0.66
2024-04-18T02:56:45.353Z,0.64
2024-04-18T02:57:45.372Z,0.65
2024-04-18T02:58:45.352Z,0.66
2024-04-18T02:59:45.395Z,0.67
2024-04-18T03:00:45.492Z,0.65
2024-04-18T03:01:45.502Z,0.65
2024-04-18T03:02:45.677Z,0.66
2024-04-18T03:03:45.822Z,0.66
2024-04-18T03:04:46.581Z,0.64
2024-04-18T03:05:45.646Z,0.65
2024-04-18T03:06:45.748Z,0.66
2024-04-18T03:07:45.759Z,0.65
2024-04-18T03:08:45.766Z,0.65
2024-04-18T03:09:45.794Z,0.65
2024-04-18T03:10:46.091Z,0.66
2024-04-18T03:11:45.909Z,0.65
2024-04-18T03:12:45.990Z,0.64
2024-04-18T03:13:45.982Z,0.65
2024-04-18T03:14:46.076Z,0.63
2024-04-18T03:15:46.205Z,0.64
2024-04-18T03:16:46.130Z,0.65
2024-04-18T03:17:48.788Z,0.65
2024-04-18T03:18:46.222Z,0.63
2024-04-18T03:19:46.166Z,0.64
2024-04-18T03:20:46.216Z,0.64
2024-04-18T03:21:46.198Z,0.64
2024-04-18T03:22:46.187Z,0.64
2024-04-18T03:23:46.193Z,0.65
2024-04-18T03:24:46.329Z,0.62
2024-04-18T03:25:46.617Z,0.64
2024-04-18T03:26:46.193Z,0.64
2024-04-18T03:27:46.274Z,0.63
2024-04-18T03:28:49.129Z,0.63
2024-04-18T03:29:46.196Z,0.63
2024-04-18T03:30:46.663Z,0.63
2024-04-18T03:31:46.184Z,0.63
2024-04-18T03:32:46.262Z,0.64
2024-04-18T03:33:46.216Z,0.64
2024-04-18T03:34:46.203Z,0.64
2024-04-18T03:35:46.231Z,0.64
2024-04-18T03:36:46.223Z,0.64
2024-04-18T03:37:46.214Z,0.62
2024-04-18T03:38:46.211Z,0.64
2024-04-18T03:39:46.317Z,0.63
2024-04-18T03:40:46.216Z,0.62
2024-04-18T03:41:46.194Z,0.63
2024-04-18T03:42:46.388Z,0.63
2024-04-18T03:43:46.176Z,0.63
2024-04-18T03:44:46.187Z,0.61
2024-04-18T03:45:46.226Z,0.63
2024-04-18T03:46:46.228Z,0.63
2024-04-18T03:47:46.354Z,0.63
2024-04-18T03:48:46.228Z,0.63
2024-04-18T03:49:46.220Z,0.61
2024-04-18T03:50:46.201Z,0.63
2024-04-18T03:51:46.242Z,0.62
2024-04-18T03:52:46.217Z,0.63
2024-04-18T03:53:46.210Z,0.64
2024-04-18T03:54:56.240Z,0.63
2024-04-18T03:55:47.233Z,0.63
2024-04-18T03:56:46.218Z,0.63
2024-04-18T03:57:46.293Z,0.62
2024-04-18T03:58:46.232Z,0.63
2024-04-18T03:59:46.234Z,0.62
2024-04-18T04:00:46.315Z,0.61
2024-04-18T04:01:46.280Z,0.63
2024-04-18T04:02:46.212Z,0.62
2024-04-18T04:03:46.266Z,0.62
2024-04-18T04:04:46.230Z,0.61
2024-04-18T04:05:46.274Z,0.61
2024-04-18T04:06:46.637Z,0.61
2024-04-18T04:07:46.320Z,0.60
2024-04-18T04:08:46.416Z,0.61
2024-04-18T04:09:46.512Z,0.61
2024-04-18T04:10:46.481Z,0.61
2024-04-18T04:11:46.524Z,0.62
2024-04-18T04:12:46.712Z,0.61
2024-04-18T04:13:46.652Z,0.61
2024-04-18T04:14:46.734Z,0.61
2024-04-18T04:15:46.823Z,0.61
2024-04-18T04:16:47.171Z,0.61
2024-04-18T04:17:46.950Z,0.61
2024-04-18T04:18:46.970Z,0.62
2024-04-18T04:19:46.903Z,0.60
2024-04-18T04:20:46.986Z,0.60
2024-04-18T04:21:47.101Z,0.60
2024-04-18T04:22:47.611Z,0.60
2024-04-18T04:23:47.136Z,0.62
2024-04-18T04:24:47.157Z,0.61
2024-04-18T04:25:47.250Z,0.60
2024-04-18T04:26:47.303Z,0.60
2024-04-18T04:27:47.527Z,0.60
2024-04-18T04:28:47.378Z,0.60
2024-04-18T04:29:48.111Z,0.60
2024-04-18T04:30:47.603Z,0.62
2024-04-18T04:31:47.682Z,0.59
2024-04-18T04:32:47.600Z,0.60
2024-04-18T04:33:47.693Z,0.61
2024-04-18T04:34:47.706Z,0.60
2024-04-18T04:35:47.711Z,0.61
2024-04-18T04:36:48.703Z,0.61
2024-04-18T04:37:47.819Z,0.62
2024-04-18T04:38:47.932Z,0.60
2024-04-18T04:39:48.001Z,0.59
2024-04-18T04:40:47.979Z,0.61
2024-04-18T04:41:48.055Z,0.59
2024-04-18T04:42:48.864Z,0.59
2024-04-18T04:43:48.167Z,0.60
2024-04-18T04:44:55.485Z,0.50
2024-04-18T04:45:55.563Z,0.50
2024-04-18T04:46:55.468Z,0.50
2024-04-18T04:47:55.547Z,0.50
2024-04-18T04:48:55.528Z,0.50
2024-04-18T04:49:55.486Z,0.51
2024-04-18T04:50:55.583Z,0.50
2024-04-18T04:51:55.501Z,0.51
2024-04-18T04:52:55.507Z,0.51
2024-04-18T04:53:55.517Z,0.51
2024-04-18T04:54:55.520Z,0.51
2024-04-18T04:55:55.527Z,0.51
2024-04-18T04:56:55.495Z,0.51
2024-04-18T04:57:55.512Z,0.51
2024-04-18T04:58:55.558Z,0.51
2024-04-18T04:59:55.487Z,0.51
2024-04-18T05:00:55.784Z,0.51
2024-04-18T05:01:55.528Z,0.51
2024-04-18T05:02:55.517Z,0.51
2024-04-18T05:03:55.571Z,0.51
2024-04-18T05:04:55.527Z,0.52
2024-04-18T05:05:55.540Z,0.52
2024-04-18T05:06:55.664Z,0.51
2024-04-18T05:07:55.806Z,0.51
2024-04-18T05:08:55.507Z,0.53
2024-04-18T05:09:55.547Z,0.53
2024-04-18T05:10:55.587Z,0.51
2024-04-18T05:11:56.080Z,0.50
2024-04-18T05:12:55.724Z,0.51
2024-04-18T05:13:55.750Z,0.51
2024-04-18T05:14:55.760Z,0.52
2024-04-18T05:15:56.002Z,0.52
2024-04-18T05:16:55.934Z,0.51
2024-04-18T05:17:55.961Z,0.52
2024-04-18T05:18:56.053Z,0.53
2024-04-18T05:19:56.097Z,0.52
2024-04-18T05:20:56.136Z,0.52
2024-04-18T05:21:56.267Z,0.53
2024-04-18T05:22:56.261Z,0.51
2024-04-18T05:23:56.332Z,0.52
2024-04-18T05:24:56.366Z,0.52
2024-04-18T05:25:56.462Z,0.52
2024-04-18T05:26:56.511Z,0.50
2024-04-18T05:27:56.593Z,0.52
2024-04-18T05:28:56.618Z,0.53
2024-04-18T05:29:56.680Z,0.52
2024-04-18T05:30:56.837Z,0.52
2024-04-18T05:31:56.818Z,0.52
2024-04-18T05:32:56.895Z,0.51
2024-04-18T05:33:57.652Z,0.52
2024-04-18T05:34:56.964Z,0.53
2024-04-18T05:35:57.651Z,0.52
2024-04-18T05:36:57.057Z,0.51
2024-04-18T05:37:57.112Z,0.52
2024-04-18T05:38:57.195Z,0.51
2024-04-18T05:39:57.351Z,0.52
2024-04-18T05:40:57.321Z,0.52
2024-04-18T05:41:57.337Z,0.53
2024-04-18T05:42:57.505Z,0.51
2024-04-18T05:43:57.511Z,0.51
2024-04-18T05:44:57.517Z,0.52
2024-04-18T05:45:57.672Z,0.52
2024-04-18T05:46:57.678Z,0.53
2024-04-18T05:47:57.766Z,0.52
2024-04-18T05:48:57.930Z,0.53
2024-04-18T05:49:57.862Z,0.52
2024-04-18T05:50:57.867Z,0.52
2024-04-18T05:51:57.997Z,0.53
2024-04-18T05:52:58.005Z,0.53
2024-04-18T05:53:58.077Z,0.52
2024-04-18T05:54:58.184Z,0.53
2024-04-18T05:55:58.194Z,0.52
2024-04-18T05:56:58.204Z,0.52
2024-04-18T05:57:58.289Z,0.52
2024-04-18T05:58:58.312Z,0.51
2024-04-18T05:59:58.377Z,0.50
2024-04-18T06:00:58.482Z,0.52
2024-04-18T06:01:58.552Z,0.52
2024-04-18T06:02:58.673Z,0.52
2024-04-18T06:03:58.760Z,0.52
2024-04-18T06:04:58.668Z,0.52
2024-04-18T06:05:58.739Z,0.54
2024-04-18T06:06:58.766Z,0.54
2024-04-18T06:07:58.799Z,0.52
2024-04-18T06:08:58.835Z,0.54
2024-04-18T06:09:58.888Z,0.54
2024-04-18T06:10:58.933Z,0.55
2024-04-18T06:11:58.962Z,0.55
2024-04-18T06:12:58.975Z,0.56
2024-04-18T06:13:59.040Z,0.58
2024-04-18T06:14:59.072Z,0.57
2024-04-18T06:15:59.204Z,0.58
2024-04-18T06:16:59.146Z,0.59
2024-04-18T06:17:59.177Z,0.60
2024-04-18T06:18:59.271Z,0.61
2024-04-18T06:19:59.236Z,0.60
2024-04-18T06:20:59.288Z,0.63
2024-04-18T06:21:59.704Z,0.65
2024-04-18T06:22:59.325Z,0.66
2024-04-18T06:23:59.424Z,0.68
2024-04-18T06:24:59.633Z,0.68
2024-04-18T06:25:59.467Z,0.68
2024-04-18T06:26:59.636Z,0.71
2024-04-18T06:27:59.525Z,0.71
2024-04-18T06:28:59.504Z,0.74
2024-04-18T06:29:59.506Z,0.74
2024-04-18T06:30:59.623Z,0.75
2024-04-18T06:31:59.666Z,0.75
2024-04-18T06:32:59.689Z,0.76
2024-04-18T06:33:59.735Z,0.77
2024-04-18T06:34:59.644Z,0.81
2024-04-18T06:35:59.635Z,0.81
2024-04-18T06:36:59.787Z,0.81
2024-04-18T06:37:59.705Z,0.84
2024-04-18T06:38:59.716Z,0.84
2024-04-18T06:39:59.760Z,0.86
2024-04-18T06:40:59.799Z,0.87
2024-04-18T06:42:00.171Z,0.88
2024-04-18T06:42:59.812Z,0.89
2024-04-18T06:43:59.799Z,0.91
2024-04-18T06:44:59.838Z,0.91
2024-04-18T06:45:59.888Z,0.90
2024-04-18T06:47:02.365Z,0.93
2024-04-18T06:47:59.956Z,0.93
2024-04-18T06:48:59.904Z,0.93
2024-04-18T06:49:59.845Z,0.95
2024-04-18T06:50:59.849Z,0.97
2024-04-18T06:51:59.963Z,0.98
2024-04-18T06:52:59.901Z,1.00
2024-04-18T06:53:59.967Z,1.01
2024-04-18T06:55:00.133Z,0.99
2024-04-18T06:55:59.908Z,1.01
2024-04-18T06:57:00.152Z,1.02
2024-04-18T06:57:59.956Z,1.02
2024-04-18T06:58:59.873Z,1.01
2024-04-18T06:59:59.889Z,1.03
2024-04-18T07:00:59.993Z,1.05
2024-04-18T07:02:00.016Z,1.05
2024-04-18T07:02:59.916Z,1.09
2024-04-18T07:03:59.981Z,1.06
2024-04-18T07:05:00.015Z,1.07
2024-04-18T07:05:59.935Z,1.07
2024-04-18T07:07:00.302Z,1.10
2024-04-18T07:07:59.896Z,1.13
2024-04-18T07:08:59.886Z,1.10
2024-04-18T07:09:59.927Z,1.13
2024-04-18T07:11:00.006Z,1.14
2024-04-18T07:12:00.178Z,1.21
2024-04-18T07:12:59.946Z,1.21
2024-04-18T07:13:59.896Z,1.28
2024-04-18T07:14:59.934Z,1.34
2024-04-18T07:15:59.947Z,1.38
2024-04-18T07:17:02.852Z,1.47
2024-04-18T07:17:59.967Z,1.47
2024-04-18T07:18:59.920Z,1.48
2024-04-18T07:19:59.909Z,1.52
2024-04-18T07:20:59.912Z,1.57
2024-04-18T07:21:59.950Z,1.77
2024-04-18T07:22:59.935Z,1.83
2024-04-18T07:24:01.967Z,1.82
2024-04-18T07:24:59.954Z,1.82
2024-04-18T07:25:59.943Z,1.88
2024-04-18T07:26:59.975Z,1.85
2024-04-18T07:28:00.141Z,1.94
2024-04-18T07:29:00.156Z,2.00
2024-04-18T07:30:00.193Z,2.01
2024-04-18T07:31:00.355Z,2.03
2024-04-18T07:32:01.170Z,1.99
2024-04-18T07:33:00.376Z,1.99
2024-04-18T07:34:00.620Z,2.06
2024-04-18T07:35:00.477Z,2.35
2024-04-18T07:36:00.509Z,2.37
2024-04-18T07:37:00.702Z,2.35
2024-04-18T07:38:00.649Z,2.46
2024-04-18T07:39:00.689Z,2.67
2024-04-18T07:40:00.803Z,2.67
2024-04-18T07:41:00.816Z,2.66
2024-04-18T07:42:01.207Z,2.66
2024-04-18T07:43:00.976Z,2.66
2024-04-18T07:44:01.014Z,2.63
2024-04-18T07:45:01.125Z,2.61
2024-04-18T07:46:01.163Z,2.65
2024-04-18T07:47:01.648Z,2.60
2024-04-18T07:48:01.361Z,2.48
2024-04-18T07:49:01.389Z,2.45
2024-04-18T07:50:01.545Z,2.42
2024-04-18T07:51:01.506Z,2.39
2024-04-18T07:53:09.234Z,2.15
2024-04-18T07:54:02.624Z,2.15
2024-04-18T07:55:03.579Z,2.08
2024-04-18T07:56:01.960Z,2.11
2024-04-18T07:57:02.470Z,2.15
2024-04-18T07:58:02.095Z,2.11
2024-04-18T07:59:02.497Z,1.94
2024-04-18T08:00:02.471Z,1.93
2024-04-18T08:01:02.641Z,1.79
2024-04-18T08:02:03.413Z,1.67
2024-04-18T08:03:04.043Z,1.60
2024-04-18T08:04:17.483Z,1.56
2024-04-18T08:05:04.584Z,1.54
2024-04-18T08:06:04.199Z,1.44
2024-04-18T08:07:04.243Z,1.45
2024-04-18T08:08:04.396Z,1.39
2024-04-18T08:09:04.495Z,1.33
2024-04-18T08:10:05.945Z,1.27
2024-04-18T08:13:05.265Z,1.16
2024-04-18T08:14:06.888Z,1.18
2024-04-18T08:15:07.516Z,1.12
2024-04-18T08:16:02.963Z,1.14
2024-04-18T08:17:01.844Z,1.07
2024-04-18T08:18:01.816Z,1.01
2024-04-18T08:19:01.839Z,0.95
2024-04-18T08:20:01.831Z,0.94
2024-04-18T08:21:01.863Z,0.88
2024-04-18T08:22:04.444Z,0.87
2024-04-18T08:23:02.040Z,0.84
2024-04-18T08:24:01.835Z,0.82
2024-04-18T08:25:01.800Z,0.78
2024-04-18T08:26:01.809Z,0.77
2024-04-18T08:27:02.201Z,0.76
2024-04-18T08:28:01.796Z,0.74
2024-04-18T08:29:02.293Z,0.70
2024-04-18T08:30:01.851Z,0.70
2024-04-18T08:31:01.833Z,0.68
2024-04-18T08:32:02.249Z,0.67
2024-04-18T08:33:01.906Z,0.66
2024-04-18T08:34:07.856Z,0.65
2024-04-18T08:35:02.892Z,0.65
2024-04-18T08:36:01.859Z,0.64
2024-04-18T08:37:02.217Z,0.63
2024-04-18T08:38:01.842Z,0.59
2024-04-18T08:39:01.879Z,0.60
2024-04-18T08:40:01.857Z,0.58
2024-04-18T08:41:01.836Z,0.57
2024-04-18T08:42:02.236Z,0.58
2024-04-18T08:43:01.824Z,0.60
2024-04-18T08:44:05.806Z,0.58
2024-04-18T08:45:01.940Z,0.57
2024-04-18T08:46:01.941Z,0.56
2024-04-18T08:47:02.185Z,0.56
2024-04-18T08:48:03.851Z,0.52
2024-04-18T08:49:01.986Z,0.54
2024-04-18T08:50:01.929Z,0.54
2024-04-18T08:51:01.976Z,0.52
2024-04-18T08:52:02.224Z,0.50
2024-04-18T08:53:01.949Z,0.51
2024-04-18T08:54:01.957Z,0.50
2024-04-18T08:55:01.943Z,0.50
2024-04-18T08:56:01.931Z,0.50
2024-04-18T08:57:02.237Z,0.51
2024-04-18T08:58:01.924Z,0.52
2024-04-18T08:59:01.938Z,0.51
2024-04-18T09:00:01.969Z,0.51
2024-04-18T09:01:01.990Z,0.50
2024-04-18T09:02:02.259Z,0.51
2024-04-18T09:03:02.016Z,0.50
2024-04-18T09:04:01.956Z,0.51
2024-04-18T09:05:02.022Z,0.51
2024-04-18T09:06:02.007Z,0.51
2024-04-18T09:07:02.197Z,0.50
2024-04-18T09:08:01.953Z,0.50
2024-04-18T09:09:01.993Z,0.50
2024-04-18T09:10:01.985Z,0.50
2024-04-18T09:11:01.994Z,0.51
2024-04-18T09:12:03.558Z,0.51
2024-04-18T09:13:06.658Z,0.51
2024-04-18T09:14:03.081Z,0.51
2024-04-18T09:15:02.075Z,0.51
2024-04-18T09:16:02.050Z,0.51
2024-04-18T09:17:02.082Z,0.51
2024-04-18T09:18:02.281Z,0.51
2024-04-18T09:19:02.056Z,0.52
2024-04-18T09:20:02.058Z,0.52
2024-04-18T09:21:02.071Z,0.52
2024-04-18T09:22:02.230Z,0.51
2024-04-18T09:23:02.061Z,0.51
2024-04-18T09:24:02.135Z,0.53
2024-04-18T09:25:02.074Z,0.51
2024-04-18T09:26:02.071Z,0.50
2024-04-18T09:27:02.305Z,0.52
2024-04-18T09:28:02.099Z,0.52
2024-04-18T09:29:02.118Z,0.51
2024-04-18T09:30:02.191Z,0.51
2024-04-18T09:31:03.835Z,0.50
2024-04-18T09:32:02.238Z,0.51
2024-04-18T09:33:05.277Z,0.51
2024-04-18T09:34:03.277Z,0.51
2024-04-18T09:35:02.203Z,0.51
2024-04-18T09:36:02.865Z,0.51
2024-04-18T09:37:02.214Z,0.51
2024-04-18T09:38:08.468Z,0.51
2024-04-18T09:39:03.347Z,0.50
2024-04-18T09:40:02.171Z,0.51
2024-04-18T09:41:02.196Z,0.51
2024-04-18T09:42:02.277Z,0.52
2024-04-18T09:43:02.208Z,0.52
2024-04-18T09:44:02.197Z,0.52
2024-04-18T09:45:02.261Z,0.50
2024-04-18T09:46:02.219Z,0.54
2024-04-18T09:47:02.226Z,0.52
2024-04-18T09:48:02.425Z,0.53
2024-04-18T09:49:02.374Z,0.54
2024-04-18T09:50:02.245Z,0.55
2024-04-18T09:51:02.253Z,0.52
2024-04-18T09:52:02.771Z,0.55
2024-04-18T09:53:02.368Z,0.53
2024-04-18T09:54:02.471Z,0.55
2024-04-18T09:55:02.494Z,0.52
2024-04-18T09:56:02.581Z,0.53
2024-04-18T09:57:02.763Z,0.55
2024-04-18T09:58:02.662Z,0.54
2024-04-18T09:59:02.784Z,0.54
2024-04-18T10:00:02.881Z,0.56
2024-04-18T10:01:02.866Z,0.60
2024-04-18T10:02:04.478Z,0.62
2024-04-18T10:03:02.967Z,0.62
2024-04-18T10:04:02.931Z,0.67
2024-04-18T10:05:03.751Z,0.68
2024-04-18T10:06:02.918Z,0.75
2024-04-18T10:07:03.246Z,0.79
2024-04-18T10:08:02.995Z,0.84
2024-04-18T10:09:03.107Z,0.87
2024-04-18T10:10:03.095Z,0.90
2024-04-18T10:11:03.200Z,0.92
2024-04-18T10:12:03.314Z,0.96
2024-04-18T10:13:03.299Z,0.99
2024-04-18T10:14:03.339Z,1.01
2024-04-18T10:15:04.289Z,1.03
2024-04-18T10:16:03.438Z,1.03
2024-04-18T10:17:03.760Z,1.05
2024-04-18T10:18:03.601Z,1.04
2024-04-18T10:19:03.622Z,1.06
2024-04-18T10:20:03.540Z,1.08
2024-04-18T10:21:03.574Z,1.08
2024-04-18T10:22:17.072Z,1.10
2024-04-18T10:23:04.681Z,1.10
2024-04-18T10:24:03.649Z,1.11
2024-04-18T10:25:03.584Z,1.12
2024-04-18T10:26:03.588Z,1.17
2024-04-18T10:27:03.865Z,1.23
2024-04-18T10:28:03.627Z,1.30
2024-04-18T10:29:03.603Z,1.34
2024-04-18T10:30:03.711Z,1.36
2024-04-18T10:31:03.608Z,1.37
2024-04-18T10:32:03.780Z,1.33
2024-04-18T10:33:03.755Z,1.38
2024-04-18T10:34:03.675Z,1.42
2024-04-18T10:35:03.596Z,1.43
2024-04-18T10:36:03.643Z,1.46
2024-04-18T10:37:03.799Z,1.45
2024-04-18T10:38:03.659Z,1.50
2024-04-18T10:39:03.711Z,1.53
2024-04-18T10:40:03.618Z,1.52
2024-04-18T10:41:03.741Z,1.55
2024-04-18T10:42:03.817Z,1.58
2024-04-18T10:43:03.630Z,1.61
2024-04-18T10:44:03.708Z,1.59
2024-04-18T10:45:03.768Z,1.64
2024-04-18T10:46:03.757Z,1.63
2024-04-18T10:47:04.280Z,1.65
2024-04-18T10:48:03.919Z,1.67
2024-04-18T10:49:04.011Z,1.67
2024-04-18T10:50:03.891Z,1.66
2024-04-18T10:51:03.984Z,1.69
2024-04-18T10:52:04.253Z,1.71
2024-04-18T10:53:04.007Z,1.68
2024-04-18T10:54:04.096Z,1.70
2024-04-18T10:55:04.124Z,1.72
2024-04-18T10:56:04.177Z,1.77
2024-04-18T10:57:04.256Z,1.74
2024-04-18T10:58:04.314Z,1.72
2024-04-18T10:59:04.351Z,1.77
2024-04-18T11:00:04.501Z,1.75
2024-04-18T11:01:04.511Z,1.80
2024-04-18T11:02:04.638Z,1.78
2024-04-18T11:03:04.629Z,1.81
2024-04-18T11:04:04.804Z,1.83
2024-04-18T11:05:04.749Z,1.88
2024-04-18T11:06:04.869Z,1.92
2024-04-18T11:07:05.282Z,1.94
2024-04-18T11:08:04.889Z,1.99
2024-04-18T11:09:05.012Z,1.99
2024-04-18T11:10:05.065Z,2.07
2024-04-18T11:11:05.102Z,2.07
2024-04-18T11:12:05.155Z,2.08
2024-04-18T11:13:05.138Z,2.07
2024-04-18T11:14:06.401Z,2.08
2024-04-18T11:15:05.432Z,2.16
2024-04-18T11:16:05.446Z,2.11
2024-04-18T11:17:05.540Z,2.16
2024-04-18T11:18:05.652Z,2.22
2024-04-18T11:19:05.662Z,2.22
2024-04-18T11:20:05.614Z,2.20
2024-04-18T11:21:05.662Z,2.18
2024-04-18T11:22:05.687Z,2.16
2024-04-18T11:23:13.469Z,2.17
2024-04-18T11:24:06.751Z,2.17
2024-04-18T11:25:05.699Z,2.19
2024-04-18T11:26:05.719Z,2.23
2024-04-18T11:27:05.763Z,2.28
2024-04-18T11:28:05.687Z,2.43
2024-04-18T11:29:05.711Z,2.39
2024-04-18T11:30:05.705Z,2.43
2024-04-18T11:31:05.781Z,2.40
2024-04-18T11:32:05.753Z,2.44
2024-04-18T11:33:05.811Z,2.44
2024-04-18T11:34:05.773Z,2.44
2024-04-18T11:35:11.857Z,2.45
2024-04-18T11:36:06.830Z,2.45
2024-04-18T11:37:05.805Z,2.46
2024-04-18T11:38:05.722Z,2.48
2024-04-18T11:39:05.779Z,2.49
2024-04-18T11:40:05.731Z,2.51
2024-04-18T11:41:05.741Z,2.53
2024-04-18T11:42:05.773Z,2.53
2024-04-18T11:43:05.719Z,2.51
2024-04-18T11:44:05.729Z,2.52
2024-04-18T11:45:05.764Z,2.47
2024-04-18T11:46:05.784Z,2.49
2024-04-18T11:47:05.746Z,2.47
2024-04-18T11:48:06.017Z,2.48
2024-04-18T11:49:05.945Z,2.45
2024-04-18T11:50:05.828Z,2.46
2024-04-18T11:51:06.797Z,2.37
2024-04-18T11:52:06.293Z,2.39
2024-04-18T11:53:06.030Z,2.37
2024-04-18T11:54:06.135Z,2.28
2024-04-18T11:55:06.150Z,2.27
2024-04-18T11:56:06.222Z,2.28
2024-04-18T11:57:06.330Z,2.30
2024-04-18T11:58:06.355Z,2.28
2024-04-18T11:59:06.443Z,2.22
2024-04-18T12:00:06.523Z,2.22
2024-04-18T12:01:06.572Z,2.22
2024-04-18T12:02:06.806Z,2.24
2024-04-18T12:03:06.767Z,2.24
2024-04-18T12:04:06.977Z,2.21
2024-04-18T12:05:06.874Z,2.22
2024-04-18T12:06:06.918Z,2.22
2024-04-18T12:07:06.967Z,2.21
2024-04-18T12:08:07.033Z,2.16
2024-04-18T12:09:07.168Z,2.20
2024-04-18T12:10:07.176Z,2.20
2024-04-18T12:11:07.263Z,2.24
2024-04-18T12:12:07.420Z,2.20
2024-04-18T12:13:07.291Z,2.22
2024-04-18T12:14:08.693Z,2.18
2024-04-18T12:15:07.471Z,2.14
2024-04-18T12:16:07.581Z,2.09
2024-04-18T12:17:07.540Z,2.16
2024-04-18T12:18:07.644Z,2.15
2024-04-18T12:19:07.627Z,2.08
2024-04-18T12:20:07.649Z,2.13
2024-04-18T12:21:07.713Z,2.09
2024-04-18T12:22:07.730Z,2.11
2024-04-18T12:23:07.798Z,2.12
2024-04-18T12:24:07.887Z,2.11
2024-04-18T12:25:08.057Z,2.13
2024-04-18T12:26:08.027Z,2.04
2024-04-18T12:27:08.095Z,2.07
2024-04-18T12:28:08.068Z,2.06
2024-04-18T12:29:08.124Z,2.06
2024-04-18T12:30:08.243Z,2.03
2024-04-18T12:31:08.289Z,2.02
2024-04-18T12:32:08.869Z,2.02
2024-04-18T12:33:08.467Z,2.01
2024-04-18T12:34:08.486Z,2.02
2024-04-18T12:35:08.549Z,2.02
2024-04-18T12:36:08.629Z,2.02
2024-04-18T12:37:08.818Z,2.00
2024-04-18T12:38:08.762Z,1.94
2024-04-18T12:39:08.844Z,1.92
2024-04-18T12:40:08.926Z,1.95
2024-04-18T12:41:09.007Z,1.93
2024-04-18T12:42:09.341Z,1.90
2024-04-18T12:43:09.070Z,1.88
2024-04-18T12:44:09.128Z,1.88
2024-04-18T12:45:09.238Z,1.90
2024-04-18T12:46:15.248Z,1.93
2024-04-18T12:47:10.300Z,1.93
2024-04-18T12:48:09.345Z,1.94
2024-04-18T12:49:09.465Z,1.96
2024-04-18T12:50:09.374Z,1.99
2024-04-18T12:51:09.269Z,2.03
2024-04-18T12:52:09.228Z,2.00
2024-04-18T12:53:09.219Z,2.02
2024-04-18T12:54:09.252Z,2.05
2024-04-18T12:55:09.218Z,2.00
2024-04-18T12:56:09.234Z,1.98
2024-04-18T12:57:09.296Z,2.02
2024-04-18T12:58:09.299Z,1.97
2024-04-18T12:59:09.374Z,1.96
2024-04-18T13:00:09.493Z,1.96
2024-04-18T13:01:09.597Z,1.94
2024-04-18T13:02:09.575Z,1.97
2024-04-18T13:03:09.768Z,1.97
2024-04-18T13:04:09.714Z,1.93
2024-04-18T13:05:09.706Z,1.92
2024-04-18T13:06:09.795Z,1.98
2024-04-18T13:07:09.820Z,1.94
2024-04-18T13:08:09.904Z,1.97
2024-04-18T13:09:10.024Z,1.99
2024-04-18T13:10:10.032Z,2.00
2024-04-18T13:11:10.185Z,1.97
2024-04-18T13:12:10.380Z,2.01
2024-04-18T13:13:10.242Z,1.98
2024-04-18T13:14:10.324Z,1.99
2024-04-18T13:15:10.442Z,1.97
2024-04-18T13:16:10.469Z,2.00
2024-04-18T13:17:10.860Z,1.99
2024-04-18T13:18:10.536Z,1.95
2024-04-18T13:19:10.531Z,1.85
2024-04-18T13:20:10.538Z,1.76
2024-04-18T13:21:10.590Z,1.73
2024-04-18T13:22:10.854Z,1.63